createdAt,value
2017-08-01T00:03:15.771Z,57
2017-08-01T00:13:16.444Z,57
2017-08-01T00:18:17.165Z,57
2017-08-01T00:23:17.222Z,57
2017-08-01T00:28:17.480Z,57
2017-08-01T00:33:25.943Z,57
2017-08-01T00:38:19.690Z,57
2017-08-01T00:43:31.089Z,57
2017-08-01T00:48:18.806Z,57
2017-08-01T00:53:19.162Z,57
2017-08-01T00:58:19.487Z,57
2017-08-01T01:03:19.839Z,57
2017-08-01T01:08:20.140Z,57
2017-08-01T01:13:20.488Z,57
2017-08-01T01:18:20.842Z,57
2017-08-01T01:23:21.162Z,57
2017-08-01T01:28:22.455Z,57
2017-08-01T01:33:21.842Z,57
2017-08-01T01:38:22.184Z,57
2017-08-01T01:43:22.508Z,57
2017-08-01T01:48:22.860Z,57
2017-08-01T01:53:23.168Z,57
2017-08-01T02:03:24.590Z,57
2017-08-01T02:08:24.355Z,57
2017-08-01T02:13:24.551Z,57
2017-08-01T02:18:27.112Z,57
2017-08-01T02:23:25.288Z,57
2017-08-01T02:28:25.539Z,57
2017-08-01T02:33:25.882Z,58
2017-08-01T02:38:26.223Z,58
2017-08-01T02:43:26.571Z,58
2017-08-01T02:48:26.897Z,58
2017-08-01T02:53:27.230Z,58
2017-08-01T02:58:27.572Z,58
2017-08-01T03:03:27.894Z,58
2017-08-01T03:08:28.230Z,58
2017-08-01T03:13:28.579Z,58
2017-08-01T03:18:28.924Z,58
2017-08-01T03:23:30.499Z,58
2017-08-01T03:28:29.562Z,58
2017-08-01T03:33:30.080Z,58
2017-08-01T03:38:30.233Z,58
2017-08-01T03:43:30.600Z,58
2017-08-01T03:48:30.927Z,58
2017-08-01T03:53:31.392Z,58
2017-08-01T03:58:31.614Z,58
2017-08-01T04:03:31.928Z,58
2017-08-01T04:08:32.915Z,58
2017-08-01T04:13:32.795Z,58
2017-08-01T04:18:32.950Z,58
2017-08-01T04:23:33.284Z,58
2017-08-01T04:28:33.611Z,58
2017-08-01T04:33:33.957Z,58
2017-08-01T04:38:34.274Z,58
2017-08-01T04:43:34.614Z,58
2017-08-01T04:48:36.882Z,58
2017-08-01T04:53:39.393Z,58
2017-08-01T04:58:35.617Z,58
2017-08-01T05:03:35.958Z,58
2017-08-01T05:08:36.306Z,58
2017-08-01T05:13:36.654Z,59
2017-08-01T05:18:37.026Z,58
2017-08-01T05:23:37.392Z,58
2017-08-01T05:28:37.650Z,58
2017-08-01T05:33:37.992Z,58
2017-08-01T05:38:38.378Z,58
2017-08-01T05:43:38.682Z,58
2017-08-01T05:48:39.013Z,58
2017-08-01T05:53:39.518Z,58
2017-08-01T05:58:39.671Z,59
2017-08-01T06:03:40.007Z,60
2017-08-01T06:08:40.355Z,62
2017-08-01T06:13:40.695Z,62
2017-08-01T06:18:41.128Z,62
2017-08-01T06:23:41.362Z,62
2017-08-01T06:28:41.684Z,62
2017-08-01T06:33:42.027Z,62
2017-08-01T06:38:42.360Z,62
2017-08-01T06:43:43.846Z,62
2017-08-01T06:48:43.013Z,62
2017-08-01T06:53:43.407Z,63
2017-08-01T06:58:47.626Z,64
2017-08-01T07:13:52.613Z,64
2017-08-01T07:18:52.972Z,63
2017-08-01T07:23:53.270Z,63
2017-08-01T07:28:53.722Z,63
2017-08-01T07:33:53.956Z,63
2017-08-01T07:38:54.304Z,64
2017-08-01T07:43:54.648Z,63
2017-08-01T07:49:09.202Z,62
2017-08-01T07:53:55.297Z,62
2017-08-01T07:58:55.648Z,61
2017-08-01T08:03:57.753Z,60
2017-08-01T08:08:56.305Z,60
2017-08-01T08:13:56.660Z,60
2017-08-01T08:18:56.992Z,61
2017-08-01T08:23:57.313Z,60
2017-08-01T08:28:57.670Z,60
2017-08-01T08:33:58.037Z,60
2017-08-01T08:38:58.390Z,59
2017-08-01T08:43:58.701Z,59
2017-08-01T08:48:59.041Z,59
2017-08-01T08:53:59.395Z,59
2017-08-01T08:58:59.688Z,59
2017-08-01T09:35:34.051Z,56
2017-08-01T09:40:34.441Z,56
2017-08-01T09:45:34.741Z,56
2017-08-01T09:50:35.074Z,56
2017-08-01T09:55:35.373Z,56
2017-08-01T10:00:35.739Z,56
2017-08-01T10:05:36.067Z,55
2017-08-01T10:10:36.382Z,55
2017-08-01T10:15:36.751Z,54
2017-08-01T10:20:37.081Z,54
2017-08-01T10:25:37.508Z,54
2017-08-01T10:30:37.754Z,54
2017-08-01T10:35:38.087Z,54
2017-08-01T10:40:38.392Z,54
2017-08-01T10:45:38.733Z,54
2017-08-01T10:50:39.141Z,54
2017-08-01T10:55:39.460Z,54
2017-08-01T11:00:39.754Z,54
2017-08-01T11:05:40.091Z,54
2017-08-01T11:10:40.508Z,54
2017-08-01T11:15:40.753Z,54
2017-08-01T11:20:55.967Z,55
2017-08-01T11:25:41.421Z,55
2017-08-01T11:30:41.791Z,55
2017-08-01T11:35:44.626Z,55
2017-08-01T11:40:42.453Z,55
2017-08-01T11:45:42.902Z,55
2017-08-01T11:50:43.090Z,55
2017-08-01T11:55:46.091Z,55
2017-08-01T12:00:43.774Z,54
2017-08-01T12:05:44.111Z,55
2017-08-01T12:10:44.453Z,55
2017-08-01T12:15:44.796Z,55
2017-08-01T12:20:45.128Z,55
2017-08-01T12:25:45.461Z,54
2017-08-01T12:30:45.820Z,54
2017-08-01T12:35:46.145Z,54
2017-08-01T12:40:46.487Z,54
2017-08-01T12:45:49.047Z,54
2017-08-01T12:50:47.149Z,55
2017-08-01T12:55:47.544Z,54
2017-08-01T13:00:47.836Z,55
2017-08-01T13:05:48.192Z,55
2017-08-01T13:10:49.506Z,55
2017-08-01T13:20:51.015Z,55
2017-08-01T13:25:49.507Z,55
2017-08-01T13:30:50.071Z,55
2017-08-01T13:35:50.158Z,55
2017-08-01T13:40:50.520Z,56
2017-08-01T13:45:50.856Z,56
2017-08-01T13:50:51.164Z,58
2017-08-01T13:55:51.514Z,59
2017-08-01T14:00:51.867Z,59
2017-08-01T14:05:52.189Z,59
2017-08-01T14:10:52.536Z,60
2017-08-01T14:15:52.876Z,60
2017-08-01T14:20:53.249Z,60
2017-08-01T14:25:53.541Z,60
2017-08-01T14:30:54.031Z,60
2017-08-01T14:35:54.195Z,60
2017-08-01T14:40:54.588Z,61
2017-08-01T14:45:54.899Z,60
2017-08-01T14:50:55.205Z,61
2017-08-01T14:55:55.561Z,60
2017-08-01T15:51:07.687Z,59
2017-08-01T15:56:09.840Z,59
2017-08-01T16:06:12.510Z,59
2017-08-01T16:11:09.046Z,59
2017-08-01T16:16:12.338Z,58
2017-08-01T16:21:12.558Z,59
2017-08-01T16:26:10.041Z,59
2017-08-01T16:31:10.372Z,58
2017-08-01T16:36:10.725Z,58
2017-08-01T16:41:11.061Z,58
2017-08-01T16:46:15.729Z,58
2017-08-01T16:51:12.572Z,58
2017-08-01T16:56:12.070Z,58
2017-08-01T17:01:12.378Z,58
2017-08-01T17:06:15.218Z,58
2017-08-01T17:11:16.993Z,58
2017-08-01T17:16:24.106Z,58
2017-08-01T17:21:13.739Z,58
2017-08-01T17:26:14.087Z,58
2017-08-01T17:31:14.413Z,58
2017-08-01T17:36:14.767Z,58
2017-08-01T17:41:15.087Z,58
2017-08-01T17:46:15.440Z,58
2017-08-01T17:51:19.926Z,58
2017-08-01T17:56:16.096Z,58
2017-08-01T18:01:16.436Z,58
2017-08-01T18:06:16.783Z,59
2017-08-01T18:11:17.108Z,59
2017-08-01T18:16:17.439Z,59
2017-08-01T18:21:17.796Z,59
2017-08-01T18:26:18.115Z,59
2017-08-01T18:31:18.467Z,59
2017-08-01T18:36:18.784Z,59
2017-08-01T18:41:19.133Z,59
2017-08-01T18:46:19.599Z,59
2017-08-01T18:51:33.783Z,59
2017-08-01T18:56:31.505Z,59
2017-08-01T19:01:20.483Z,59
2017-08-01T19:06:20.783Z,59
2017-08-01T19:11:35.263Z,60
2017-08-01T19:16:21.492Z,60
2017-08-01T19:21:21.830Z,60
2017-08-01T19:26:22.166Z,60
2017-08-01T19:31:22.501Z,60
2017-08-01T19:36:22.823Z,60
2017-08-01T19:41:23.163Z,60
2017-08-01T19:46:23.495Z,60
2017-08-01T19:51:26.328Z,60
2017-08-01T19:56:24.178Z,60
2017-08-01T20:01:24.702Z,60
2017-08-01T20:06:24.836Z,60
2017-08-01T20:11:25.182Z,60
2017-08-01T20:16:25.525Z,60
2017-08-01T20:21:25.866Z,60
2017-08-01T20:26:29.285Z,60
2017-08-01T20:31:26.519Z,60
2017-08-01T20:36:26.868Z,60
2017-08-01T20:41:27.189Z,60
2017-08-01T20:46:27.552Z,61
2017-08-01T20:51:39.559Z,61
2017-08-01T20:56:28.214Z,61
2017-08-01T21:01:30.301Z,61
2017-08-01T21:06:28.878Z,61
2017-08-01T21:11:29.222Z,61
2017-08-01T21:16:29.539Z,61
2017-08-01T21:21:29.894Z,61
2017-08-01T21:26:32.281Z,61
2017-08-01T21:31:34.786Z,61
2017-08-01T21:36:30.954Z,61
2017-08-01T21:41:31.247Z,61
2017-08-01T21:46:31.576Z,61
2017-08-01T21:51:32.028Z,61
2017-08-01T21:56:32.246Z,61
2017-08-01T22:01:32.593Z,61
2017-08-01T22:06:32.902Z,61
2017-08-01T22:11:33.278Z,60
2017-08-01T22:16:33.572Z,60
2017-08-01T22:21:33.929Z,60
2017-08-01T22:26:34.272Z,60
2017-08-01T22:31:34.597Z,60
2017-08-01T22:36:34.953Z,60
2017-08-01T22:41:35.272Z,60
2017-08-01T22:46:35.656Z,60
2017-08-01T22:51:35.956Z,60
2017-08-01T22:56:36.300Z,60
2017-08-01T23:01:36.642Z,61
2017-08-01T23:06:36.970Z,61
2017-08-01T23:12:05.096Z,61
2017-08-01T23:16:37.755Z,61
2017-08-01T23:21:37.983Z,61
2017-08-01T23:26:38.286Z,61
2017-08-01T23:31:49.445Z,61
2017-08-01T23:36:38.975Z,61
2017-08-01T23:41:40.064Z,61
2017-08-01T23:46:39.641Z,61
2017-08-01T23:51:39.995Z,61
2017-08-01T23:56:53.595Z,61
